createdAt,value
2022-12-22T00:02:11.795Z,5.85
2022-12-22T00:04:55.960Z,5.88
2022-12-22T00:07:37.875Z,5.87
2022-12-22T00:10:24.121Z,5.86
2022-12-22T00:13:06.063Z,5.85
2022-12-22T00:15:50.201Z,5.88
2022-12-22T00:18:32.528Z,5.87
2022-12-22T00:21:14.561Z,5.88
2022-12-22T00:23:56.494Z,5.83
2022-12-22T00:26:41.906Z,5.79
2022-12-22T00:29:28.185Z,5.80
2022-12-22T00:32:10.195Z,5.77
2022-12-22T00:34:56.127Z,5.85
2022-12-22T00:37:38.081Z,5.77
2022-12-22T00:40:31.663Z,5.75
2022-12-22T00:43:16.241Z,5.78
2022-12-22T00:45:58.241Z,5.73
2022-12-22T00:48:41.226Z,5.65
2022-12-22T00:51:23.963Z,5.66
2022-12-22T00:54:06.062Z,5.67
2022-12-22T00:56:48.334Z,5.67
2022-12-22T00:59:32.842Z,5.64
2022-12-22T01:02:15.016Z,5.64
2022-12-22T01:04:57.100Z,5.67
2022-12-22T01:07:40.910Z,5.66
2022-12-22T01:10:27.834Z,5.66
2022-12-22T01:13:09.698Z,5.64
2022-12-22T01:15:54.316Z,5.63
2022-12-22T01:18:36.607Z,5.62
2022-12-22T01:21:19.330Z,5.64
2022-12-22T01:24:01.628Z,5.66
2022-12-22T01:26:43.731Z,5.65
2022-12-22T01:29:25.638Z,5.66
2022-12-22T01:32:10.216Z,5.63
2022-12-22T01:34:52.542Z,5.64
2022-12-22T01:37:34.519Z,5.64
2022-12-22T01:40:16.409Z,5.64
2022-12-22T01:42:58.296Z,5.66
2022-12-22T01:45:42.198Z,5.67
2022-12-22T01:48:31.025Z,5.67
2022-12-22T01:51:13.423Z,5.67
2022-12-22T01:53:55.315Z,5.66
2022-12-22T01:56:37.380Z,5.67
2022-12-22T01:59:19.845Z,5.68
2022-12-22T02:02:01.953Z,5.72
2022-12-22T02:04:50.976Z,5.67
2022-12-22T02:07:42.695Z,5.68
2022-12-22T02:10:35.394Z,5.66
2022-12-22T02:13:23.788Z,5.67
2022-12-22T02:16:09.773Z,5.69
2022-12-22T02:18:57.357Z,5.68
2022-12-22T02:21:44.418Z,5.70
2022-12-22T02:24:41.170Z,5.72
2022-12-22T02:27:25.780Z,5.73
2022-12-22T02:30:09.184Z,5.75
2022-12-22T02:32:53.187Z,5.77
2022-12-22T02:35:35.352Z,5.75
2022-12-22T02:38:22.334Z,5.73
2022-12-22T02:41:10.756Z,5.74
2022-12-22T02:44:08.784Z,5.73
2022-12-22T02:46:56.294Z,5.75
2022-12-22T02:49:41.027Z,5.75
2022-12-22T02:52:28.137Z,5.76
2022-12-22T02:55:10.254Z,5.77
2022-12-22T02:57:52.147Z,5.78
2022-12-22T03:00:37.273Z,5.81
2022-12-22T03:03:19.572Z,5.81
2022-12-22T03:06:01.765Z,5.86
2022-12-22T03:08:43.656Z,5.84
2022-12-22T03:11:25.838Z,5.85
2022-12-22T03:14:07.830Z,5.83
2022-12-22T03:16:52.313Z,5.81
2022-12-22T03:19:34.165Z,5.83
2022-12-22T03:22:16.082Z,5.84
2022-12-22T03:24:58.020Z,5.80
2022-12-22T03:27:27.501Z,5.80
2022-12-22T03:29:56.924Z,5.86
2022-12-22T03:32:28.931Z,5.81
2022-12-22T03:34:58.505Z,5.86
2022-12-22T03:37:27.900Z,5.87
2022-12-22T03:40:00.169Z,5.88
2022-12-22T03:42:42.077Z,5.88
2022-12-22T03:45:25.281Z,5.87
2022-12-22T03:47:57.428Z,5.90
2022-12-22T03:50:26.895Z,5.87
2022-12-22T03:52:56.498Z,5.91
2022-12-22T03:55:25.909Z,5.89
2022-12-22T03:57:55.336Z,5.96
2022-12-22T04:00:25.069Z,5.93
2022-12-22T04:02:57.197Z,5.92
2022-12-22T04:05:26.670Z,5.92
2022-12-22T04:07:56.160Z,5.88
2022-12-22T04:10:38.078Z,5.89
2022-12-22T04:13:07.505Z,5.93
2022-12-22T04:15:36.889Z,5.96
2022-12-22T04:18:11.361Z,5.93
2022-12-22T04:20:40.777Z,5.93
2022-12-22T04:23:10.185Z,5.93
2022-12-22T04:25:39.656Z,5.99
2022-12-22T04:28:10.160Z,5.95
2022-12-22T04:30:39.582Z,5.99
2022-12-22T04:33:11.528Z,5.98
2022-12-22T04:35:41.170Z,6.00
2022-12-22T04:38:10.597Z,5.99
2022-12-22T04:40:40.180Z,6.02
2022-12-22T04:43:09.740Z,6.01
2022-12-22T04:45:39.299Z,6.02
2022-12-22T04:48:11.469Z,6.03
2022-12-22T04:50:40.858Z,6.07
2022-12-22T04:53:10.245Z,6.11
2022-12-22T04:55:39.892Z,6.08
2022-12-22T04:58:09.512Z,6.07
2022-12-22T05:00:38.896Z,6.21
2022-12-22T05:03:11.203Z,6.12
2022-12-22T05:05:40.746Z,6.10
2022-12-22T05:08:10.130Z,6.11
2022-12-22T05:10:42.660Z,6.11
2022-12-22T05:13:12.115Z,6.11
2022-12-22T05:15:41.527Z,6.15
2022-12-22T05:18:13.748Z,6.08
2022-12-22T05:20:43.189Z,6.13
2022-12-22T05:23:12.770Z,6.12
2022-12-22T05:25:42.317Z,6.10
2022-12-22T05:28:11.692Z,6.09
2022-12-22T05:30:43.794Z,6.10
2022-12-22T05:33:15.838Z,6.13
2022-12-22T05:35:45.269Z,6.18
2022-12-22T05:38:15.094Z,6.14
2022-12-22T05:40:44.472Z,6.18
2022-12-22T05:43:14.136Z,6.12
2022-12-22T05:45:43.840Z,6.19
2022-12-22T05:48:18.841Z,6.14
2022-12-22T05:50:52.035Z,6.20
2022-12-22T05:53:21.477Z,6.16
2022-12-22T05:55:52.433Z,6.16
2022-12-22T05:58:21.819Z,6.15
2022-12-22T06:00:51.241Z,6.11
2022-12-22T06:03:23.371Z,6.13
2022-12-22T06:05:53.174Z,6.10
2022-12-22T06:08:22.898Z,6.24
2022-12-22T06:10:52.434Z,6.21
2022-12-22T06:13:22.068Z,6.15
2022-12-22T06:15:51.800Z,6.19
2022-12-22T06:18:24.430Z,6.19
2022-12-22T06:20:54.359Z,6.19
2022-12-22T06:23:23.807Z,6.18
2022-12-22T06:25:57.829Z,6.20
2022-12-22T06:28:27.308Z,6.21
2022-12-22T06:30:56.962Z,6.19
2022-12-22T06:33:29.029Z,6.20
2022-12-22T06:35:59.648Z,6.18
2022-12-22T06:38:29.740Z,6.18
2022-12-22T06:40:59.229Z,6.19
2022-12-22T06:43:26.651Z,6.19
2022-12-22T06:45:58.719Z,6.22
2022-12-22T06:48:31.008Z,6.22
2022-12-22T06:51:01.112Z,6.23
2022-12-22T06:53:30.507Z,6.25
2022-12-22T06:56:00.101Z,6.26
2022-12-22T06:58:29.515Z,6.23
2022-12-22T07:00:59.193Z,6.28
2022-12-22T07:03:31.382Z,6.22
2022-12-22T07:06:00.819Z,6.21
2022-12-22T07:08:30.266Z,6.19
2022-12-22T07:11:02.527Z,6.18
2022-12-22T07:13:34.533Z,6.23
2022-12-22T07:16:04.582Z,6.56
2022-12-22T07:18:38.265Z,6.46
2022-12-22T07:21:09.688Z,6.34
2022-12-22T07:23:39.634Z,6.39
2022-12-22T07:26:10.109Z,6.27
2022-12-22T07:28:40.804Z,6.28
2022-12-22T07:31:10.787Z,6.26
2022-12-22T07:33:43.183Z,6.22
2022-12-22T07:36:14.509Z,6.18
2022-12-22T07:38:46.427Z,6.22
2022-12-22T07:41:30.180Z,6.17
2022-12-22T07:44:01.242Z,6.22
2022-12-22T07:46:35.330Z,6.18
2022-12-22T07:49:20.673Z,6.21
2022-12-22T07:51:53.434Z,6.19
2022-12-22T07:54:22.801Z,6.18
2022-12-22T07:56:52.260Z,6.16
2022-12-22T07:59:21.946Z,6.16
2022-12-22T08:01:51.645Z,6.16
2022-12-22T08:04:24.283Z,6.16
2022-12-22T08:06:54.099Z,6.16
2022-12-22T08:09:23.648Z,6.18
2022-12-22T08:11:53.075Z,6.13
2022-12-22T08:14:22.502Z,6.18
2022-12-22T08:16:52.142Z,6.17
2022-12-22T08:19:24.160Z,6.18
2022-12-22T08:21:53.681Z,6.21
2022-12-22T08:24:23.295Z,6.19
2022-12-22T08:26:55.338Z,6.18
2022-12-22T08:29:27.143Z,6.16
2022-12-22T08:31:57.844Z,6.17
2022-12-22T08:34:30.346Z,6.18
2022-12-22T08:37:02.775Z,6.18
2022-12-22T08:39:35.692Z,6.22
2022-12-22T08:42:07.076Z,6.27
2022-12-22T08:44:36.571Z,6.24
2022-12-22T08:47:07.983Z,6.24
2022-12-22T08:49:43.561Z,6.25
2022-12-22T08:52:18.034Z,6.21
2022-12-22T08:54:48.554Z,6.25
2022-12-22T08:57:18.056Z,6.24
2022-12-22T08:59:48.175Z,6.21
2022-12-22T09:02:17.800Z,6.19
2022-12-22T09:04:49.923Z,6.21
2022-12-22T09:07:19.761Z,6.19
2022-12-22T09:09:49.358Z,6.24
2022-12-22T09:12:18.963Z,6.21
2022-12-22T09:14:48.351Z,6.41
2022-12-22T09:17:17.894Z,6.40
2022-12-22T09:19:49.947Z,6.41
2022-12-22T09:22:26.740Z,6.37
2022-12-22T09:24:57.720Z,6.50
2022-12-22T09:27:27.280Z,6.41
2022-12-22T09:29:57.393Z,6.44
2022-12-22T09:32:27.137Z,6.35
2022-12-22T09:34:59.130Z,6.33
2022-12-22T09:37:28.883Z,6.34
2022-12-22T09:39:58.360Z,6.32
2022-12-22T09:42:27.888Z,6.40
2022-12-22T09:44:57.389Z,6.37
2022-12-22T09:47:30.967Z,6.39
2022-12-22T09:50:06.412Z,6.37
2022-12-22T09:52:46.034Z,6.42
2022-12-22T09:55:18.567Z,6.43
2022-12-22T09:57:48.204Z,6.40
2022-12-22T10:00:21.444Z,6.46
2022-12-22T10:02:55.883Z,6.33
2022-12-22T10:05:38.464Z,6.28
2022-12-22T10:08:13.726Z,6.24
2022-12-22T10:10:43.395Z,6.25
2022-12-22T10:13:19.947Z,6.30
2022-12-22T10:15:50.214Z,6.39
2022-12-22T10:18:23.147Z,6.33
2022-12-22T10:21:12.025Z,6.37
2022-12-22T10:23:43.245Z,6.39
2022-12-22T10:26:31.502Z,6.58
2022-12-22T10:29:06.482Z,6.58
2022-12-22T10:31:37.006Z,6.60
2022-12-22T10:34:15.653Z,6.62
2022-12-22T10:36:50.542Z,6.75
2022-12-22T10:39:24.373Z,6.78
2022-12-22T10:41:55.270Z,6.85
2022-12-22T10:44:26.584Z,6.90
2022-12-22T10:46:57.284Z,6.85
2022-12-22T10:49:29.247Z,6.88
2022-12-22T10:52:13.311Z,6.69
2022-12-22T10:54:44.758Z,6.80
2022-12-22T10:57:28.975Z,6.73
2022-12-22T10:59:59.800Z,6.72
2022-12-22T11:02:32.708Z,6.63
2022-12-22T11:05:08.071Z,6.68
2022-12-22T11:07:42.811Z,6.73
2022-12-22T11:10:21.325Z,6.61
2022-12-22T11:13:03.531Z,6.68
2022-12-22T11:15:37.365Z,6.65
2022-12-22T11:18:16.889Z,6.71
2022-12-22T11:20:54.660Z,6.65
2022-12-22T11:23:31.253Z,6.64
2022-12-22T11:26:10.483Z,6.70
2022-12-22T11:28:53.998Z,6.82
2022-12-22T11:31:33.905Z,6.83
2022-12-22T11:34:09.601Z,6.82
2022-12-22T11:36:52.865Z,6.94
2022-12-22T11:39:35.897Z,6.91
2022-12-22T11:42:12.014Z,6.96
2022-12-22T11:44:44.686Z,7.07
2022-12-22T11:47:21.152Z,6.95
2022-12-22T11:50:58.120Z,6.88
2022-12-22T11:53:37.280Z,6.86
2022-12-22T11:56:20.908Z,6.80
2022-12-22T11:59:02.193Z,6.85
2022-12-22T12:01:43.548Z,6.85
2022-12-22T12:04:32.324Z,6.78
2022-12-22T12:07:25.710Z,6.72
2022-12-22T12:10:01.774Z,6.60
2022-12-22T12:12:42.028Z,6.73
2022-12-22T12:15:23.864Z,6.78
2022-12-22T12:18:05.924Z,6.72
2022-12-22T12:20:46.283Z,6.71
2022-12-22T12:23:26.226Z,6.74
2022-12-22T12:26:01.847Z,6.78
2022-12-22T12:28:43.135Z,6.93
2022-12-22T12:31:16.701Z,7.06
2022-12-22T12:33:52.269Z,7.05
2022-12-22T12:36:26.560Z,7.06
2022-12-22T12:39:07.920Z,7.19
2022-12-22T12:41:43.510Z,7.32
2022-12-22T12:44:17.931Z,7.41
2022-12-22T12:46:59.891Z,7.50
2022-12-22T12:49:54.419Z,7.84
2022-12-22T12:52:53.722Z,8.02
2022-12-22T12:55:31.852Z,8.05
2022-12-22T12:58:03.552Z,8.17
2022-12-22T13:00:55.474Z,8.26
2022-12-22T13:06:53.471Z,8.33
2022-12-22T13:12:37.377Z,8.88
2022-12-22T13:15:07.451Z,8.94
2022-12-22T13:17:43.602Z,9.27
2022-12-22T13:20:18.190Z,9.23
2022-12-22T13:22:48.544Z,9.34
2022-12-22T13:25:18.879Z,8.81
2022-12-22T13:27:48.780Z,8.91
2022-12-22T13:30:21.369Z,8.74
2022-12-22T13:32:53.757Z,8.03
2022-12-22T13:35:31.473Z,7.79
2022-12-22T13:38:01.388Z,7.55
2022-12-22T13:40:33.380Z,7.68
2022-12-22T13:43:05.197Z,7.59
2022-12-22T13:45:39.448Z,7.42
2022-12-22T13:48:16.160Z,7.45
2022-12-22T13:50:48.216Z,7.42
2022-12-22T13:53:58.034Z,7.51
2022-12-22T13:56:11.713Z,7.62
2022-12-22T13:58:45.100Z,7.72
2022-12-22T14:01:21.073Z,7.88
2022-12-22T14:04:00.970Z,8.20
2022-12-22T14:06:33.099Z,7.79
2022-12-22T14:09:18.107Z,7.50
2022-12-22T14:11:52.332Z,7.51
2022-12-22T14:14:26.036Z,7.36
2022-12-22T14:16:57.627Z,7.23
2022-12-22T14:19:33.779Z,7.08
2022-12-22T14:22:08.401Z,7.10
2022-12-22T14:24:43.737Z,6.95
2022-12-22T14:27:20.460Z,6.81
2022-12-22T14:29:51.097Z,6.65
2022-12-22T14:32:37.775Z,6.63
2022-12-22T14:35:19.519Z,6.58
2022-12-22T14:37:49.094Z,6.54
2022-12-22T14:40:32.452Z,6.43
2022-12-22T14:43:03.411Z,6.40
2022-12-22T14:45:32.971Z,6.38
2022-12-22T14:48:02.459Z,6.34
2022-12-22T14:50:34.879Z,6.31
2022-12-22T14:53:05.365Z,6.26
2022-12-22T14:55:37.940Z,6.20
2022-12-22T14:58:09.645Z,6.13
2022-12-22T15:00:40.755Z,6.09
2022-12-22T15:03:32.713Z,6.02
2022-12-22T15:06:34.740Z,6.04
2022-12-22T15:12:19.232Z,5.75
2022-12-22T15:14:49.881Z,5.73
2022-12-22T15:17:29.010Z,5.77
2022-12-22T15:20:00.607Z,5.62
2022-12-22T15:22:32.962Z,5.53
2022-12-22T15:25:02.663Z,5.45
2022-12-22T15:27:34.388Z,5.37
2022-12-22T15:30:03.899Z,5.36
2022-12-22T15:32:37.857Z,5.30
2022-12-22T15:35:17.523Z,5.21
2022-12-22T15:37:49.914Z,5.19
2022-12-22T15:40:21.811Z,5.17
2022-12-22T15:42:52.149Z,5.16
2022-12-22T15:45:23.258Z,5.12
2022-12-22T15:47:55.092Z,5.10
2022-12-22T15:50:26.874Z,5.12
2022-12-22T15:53:00.666Z,5.12
2022-12-22T15:55:30.839Z,5.12
2022-12-22T15:58:01.656Z,5.11
2022-12-22T16:00:31.212Z,5.09
2022-12-22T16:03:00.709Z,5.12
2022-12-22T16:05:30.308Z,5.08
2022-12-22T16:08:03.489Z,4.99
2022-12-22T16:10:34.688Z,4.94
2022-12-22T16:13:04.902Z,4.90
2022-12-22T16:15:36.354Z,4.86
2022-12-22T16:18:06.508Z,4.89
2022-12-22T16:20:40.457Z,4.87
2022-12-22T16:23:16.249Z,4.89
2022-12-22T16:25:47.652Z,4.85
2022-12-22T16:28:19.542Z,4.87
2022-12-22T16:30:49.456Z,4.84
2022-12-22T16:33:19.555Z,4.85
2022-12-22T16:35:49.156Z,4.79
2022-12-22T16:38:21.974Z,4.78
2022-12-22T16:40:53.756Z,4.79
2022-12-22T16:46:09.927Z,4.81
2022-12-22T16:48:43.103Z,4.80
2022-12-22T16:51:18.334Z,4.79
2022-12-22T16:53:50.563Z,4.79
2022-12-22T16:56:22.052Z,4.81
2022-12-22T16:58:54.847Z,4.81
2022-12-22T17:01:32.844Z,4.79
2022-12-22T17:04:05.107Z,4.78
2022-12-22T17:06:34.741Z,4.79
2022-12-22T17:09:11.214Z,4.76
2022-12-22T17:11:40.799Z,4.77
2022-12-22T17:14:18.687Z,4.78
2022-12-22T17:16:48.181Z,4.77
2022-12-22T17:19:17.651Z,4.77
2022-12-22T17:21:47.268Z,4.77
2022-12-22T17:24:25.934Z,4.82
2022-12-22T17:26:57.354Z,4.79
2022-12-22T17:29:26.878Z,4.81
2022-12-22T17:31:57.294Z,4.82
2022-12-22T17:34:26.940Z,4.81
2022-12-22T17:36:58.890Z,4.80
2022-12-22T17:39:32.675Z,4.83
2022-12-22T17:42:02.131Z,4.78
2022-12-22T17:44:32.635Z,4.81
2022-12-22T17:47:02.559Z,4.83
2022-12-22T17:49:32.166Z,4.87
2022-12-22T17:52:01.790Z,4.89
2022-12-22T17:54:34.159Z,4.90
2022-12-22T17:57:05.618Z,4.89
2022-12-22T17:59:35.080Z,4.92
2022-12-22T18:02:04.684Z,4.90
2022-12-22T18:04:34.227Z,4.90
2022-12-22T18:07:03.711Z,4.93
2022-12-22T18:09:35.893Z,4.92
2022-12-22T18:12:12.389Z,4.93
2022-12-22T18:14:41.894Z,4.88
2022-12-22T18:17:23.400Z,4.86
2022-12-22T18:19:53.383Z,4.87
2022-12-22T18:22:24.092Z,4.81
2022-12-22T18:24:57.129Z,4.82
2022-12-22T18:27:26.966Z,4.79
2022-12-22T18:29:59.813Z,4.80
2022-12-22T18:32:29.242Z,4.77
2022-12-22T18:34:58.734Z,4.73
2022-12-22T18:37:28.260Z,4.72
2022-12-22T18:40:00.254Z,4.71
2022-12-22T18:42:29.650Z,4.69
2022-12-22T18:44:59.182Z,4.67
2022-12-22T18:47:28.667Z,4.61
2022-12-22T18:50:02.902Z,4.62
2022-12-22T18:52:33.238Z,4.61
2022-12-22T18:55:05.252Z,4.59
2022-12-22T18:57:34.627Z,4.59
2022-12-22T19:00:09.712Z,4.58
2022-12-22T19:02:43.032Z,4.55
2022-12-22T19:05:18.118Z,4.53
2022-12-22T19:07:48.278Z,4.52
2022-12-22T19:10:23.186Z,4.52
2022-12-22T19:12:55.468Z,4.59
2022-12-22T19:15:28.784Z,4.56
2022-12-22T19:17:58.347Z,4.57
2022-12-22T19:20:28.499Z,4.55
2022-12-22T19:22:58.118Z,4.55
2022-12-22T19:25:31.696Z,4.53
2022-12-22T19:28:08.095Z,4.54
2022-12-22T19:30:37.609Z,4.54
2022-12-22T19:33:07.425Z,4.53
2022-12-22T19:35:37.039Z,4.54
2022-12-22T19:38:20.136Z,4.57
2022-12-22T19:40:52.743Z,4.56
2022-12-22T19:43:22.304Z,4.57
2022-12-22T19:45:54.524Z,4.56
2022-12-22T19:48:25.516Z,4.59
2022-12-22T19:50:56.176Z,4.61
2022-12-22T19:53:26.627Z,4.64
2022-12-22T19:55:59.404Z,4.66
2022-12-22T19:58:30.940Z,4.66
2022-12-22T20:01:00.500Z,4.69
2022-12-22T20:03:30.085Z,4.67
2022-12-22T20:05:59.605Z,4.68
2022-12-22T20:08:29.572Z,4.66
2022-12-22T20:11:02.383Z,4.67
2022-12-22T20:13:34.467Z,4.67
2022-12-22T20:16:03.986Z,4.70
2022-12-22T20:18:33.537Z,4.71
2022-12-22T20:21:04.479Z,4.73
2022-12-22T20:23:38.006Z,4.76
2022-12-22T20:26:15.183Z,4.78
2022-12-22T20:28:45.091Z,4.76
2022-12-22T20:31:16.517Z,4.72
2022-12-22T20:33:46.192Z,4.71
2022-12-22T20:36:22.185Z,4.71
2022-12-22T20:38:52.599Z,4.72
2022-12-22T20:41:24.909Z,4.73
2022-12-22T20:43:54.565Z,4.71
2022-12-22T20:46:26.547Z,4.72
2022-12-22T20:48:58.084Z,4.72
2022-12-22T20:51:29.454Z,4.71
2022-12-22T20:53:59.873Z,4.72
2022-12-22T20:56:33.830Z,4.75
2022-12-22T20:59:09.996Z,4.81
2022-12-22T21:01:39.658Z,4.81
2022-12-22T21:04:09.371Z,4.81
2022-12-22T21:06:40.828Z,4.83
2022-12-22T21:09:10.296Z,4.82
2022-12-22T21:11:42.457Z,4.80
2022-12-22T21:14:12.678Z,4.77
2022-12-22T21:16:42.872Z,4.78
2022-12-22T21:19:18.711Z,4.72
2022-12-22T21:21:48.337Z,4.75
2022-12-22T21:24:18.687Z,4.77
2022-12-22T21:26:53.435Z,4.76
2022-12-22T21:29:24.290Z,4.75
2022-12-22T21:31:54.057Z,4.80
2022-12-22T21:34:23.748Z,4.78
2022-12-22T21:36:57.724Z,4.77
2022-12-22T21:39:32.514Z,4.79
2022-12-22T21:42:05.209Z,4.77
2022-12-22T21:44:36.369Z,4.76
2022-12-22T21:47:06.002Z,4.78
2022-12-22T21:49:36.358Z,4.75
2022-12-22T21:52:05.890Z,4.77
2022-12-22T21:54:35.297Z,4.76
2022-12-22T21:57:07.396Z,4.74
2022-12-22T21:59:36.931Z,4.73
2022-12-22T22:02:06.516Z,4.71
2022-12-22T22:04:36.003Z,4.69
2022-12-22T22:07:05.515Z,4.72
2022-12-22T22:09:35.021Z,4.70
2022-12-22T22:12:24.788Z,4.69
2022-12-22T22:14:57.519Z,4.71
2022-12-22T22:17:27.005Z,4.65
2022-12-22T22:19:56.476Z,4.66
2022-12-22T22:22:25.985Z,4.68
2022-12-22T22:24:55.490Z,4.60
2022-12-22T22:27:27.499Z,4.59
2022-12-22T22:29:57.302Z,4.59
2022-12-22T22:32:26.772Z,4.66
2022-12-22T22:34:56.308Z,4.62
2022-12-22T22:37:25.884Z,4.59
2022-12-22T22:39:55.423Z,4.59
2022-12-22T22:42:27.513Z,4.58
2022-12-22T22:44:56.981Z,4.63
2022-12-22T22:47:26.515Z,4.59
2022-12-22T22:49:56.296Z,4.57
2022-12-22T22:52:25.774Z,4.58
2022-12-22T22:54:55.215Z,4.65
2022-12-22T22:57:27.381Z,4.58
2022-12-22T22:59:56.937Z,4.56
2022-12-22T23:02:26.920Z,4.57
2022-12-22T23:04:56.584Z,4.58
2022-12-22T23:07:26.178Z,4.54
2022-12-22T23:09:55.633Z,4.57
2022-12-22T23:12:27.748Z,4.57
2022-12-22T23:14:57.384Z,4.55
2022-12-22T23:17:26.909Z,4.53
2022-12-22T23:19:56.405Z,4.53
2022-12-22T23:22:25.925Z,4.58
2022-12-22T23:24:55.393Z,4.53
2022-12-22T23:27:27.411Z,4.56
2022-12-22T23:29:56.922Z,4.52
2022-12-22T23:32:26.406Z,4.66
2022-12-22T23:34:55.931Z,4.69
2022-12-22T23:37:25.462Z,4.70
2022-12-22T23:39:56.126Z,4.84
2022-12-22T23:42:33.839Z,4.88
2022-12-22T23:45:03.378Z,4.78
2022-12-22T23:47:32.745Z,4.71
2022-12-22T23:50:02.246Z,4.63
2022-12-22T23:52:31.659Z,4.54
2022-12-22T23:55:01.075Z,4.57
2022-12-22T23:57:33.122Z,4.55
